Airfield :
LOGIN :

Register | Disclaimer

   EN    FR    IT 

 










Legend :    VFR   Marginal VFR   IFR   Intensive IFR   Very Intensive IFR
Visi :
Ceiling :
>= 8 km
>= 3000ft
5 to 8 km
1000 to 3000 ft
1500m to 5 km
500 to 1000 ft
800 to 1500m
200 to 500 ft
< 800m
< 200 ft
Symbols :   Thunderstorms  Fog  Heavy snow  Heavy precipitations  Wind > 20 kt
SIGMETs :     Misc.  Thunderstorms  Icing  Turbulence  Mountain Waves  Volcanic Ashes







- Airport Elevation : 17 ft
- IATA code : GRQ


EHGG - Groningen Eelde

CURRENT METAR :
  • 252125Z AUTO 36001KT 9999 NCD 11/10 Q1024

EXPIRED METARs :
  • 252055Z AUTO 00000KT 9999 NCD 13/10 Q1024 NOSIG
  • 252025Z AUTO 33002KT 9999 NCD 13/10 Q1024 NOSIG
  • 251955Z AUTO 35003KT 310V060 9999 NCD 14/10 Q1024 NOSIG
  • 251925Z AUTO 01005KT 9999 NCD 16/10 Q1024 NOSIG
  • 251855Z AUTO 01005KT 340V040 9999 NCD 17/10 Q1023 NOSIG

TAF TAF EHGG
Valid from the 25 at 18:00 until the 27 at 00:00 UTC


251707Z 2518/2624 36007KT CAVOK
BECMG 2521/2524 4000 BR MIFG
BECMG 2600/2603 1500 BCFG
PROB40 2600/2607 0500 FG BKN001
BECMG 2606/2609 CAVOK
BECMG 2612/2615 07010KT
PROB30 2621/2624 4000 BR
No reported NOTAMs for that airfield.



MET'MAP, your aeronautical weather chart ! - Copyright ORBIFLY December 2007 - Disclaimer

ORBIFLY MET'MAP TEAM :

Programming & Development : Alexandra Zaïnal
Concept & Development : Baudouin d'Aumeries
Co-Development & Prog : Marc-Olivier Méhu
Technical & hardware support : Manuel Goepfert

Contact : metmap@orbifly.com




SOURCES & CREDITS :

   NOAA